Time;durP1;ratioP1;P1;durP2;ratioP2;P2;SDS_P1;SDS_P2;PMS_P1;PMS_P2;Temp;Humidity;BMP_temperature;BMP_pressure;BME280_temperature;BME280_humidity;BME280_pressure;Samples;Min_cycle;Max_cycle;Signal;HPM_P1;HPM_P2
2023/10/18 00:01:18;;;;;;;1.30;0.90;;;17.40;96.90;;;;;;5120961;28;20071;-73
2023/10/18 00:03:44;;;;;;;1.55;0.90;;;17.40;97.50;;;;;;5121178;28;20395;-74
2023/10/18 00:06:15;;;;;;;1.52;1.00;;;17.40;97.20;;;;;;5121037;28;20016;-73
2023/10/18 00:08:41;;;;;;;1.92;0.85;;;17.30;97.60;;;;;;5121023;28;20016;-74
2023/10/18 00:11:07;;;;;;;2.63;1.00;;;17.40;97.40;;;;;;5120756;28;20020;-74
2023/10/18 00:13:33;;;;;;;2.85;1.30;;;17.40;97.60;;;;;;5120998;28;20031;-74
2023/10/18 00:16:04;;;;;;;1.33;0.80;;;17.50;97.60;;;;;;5120955;28;20027;-74
2023/10/18 00:18:31;;;;;;;1.30;0.82;;;17.40;97.20;;;;;;5121032;28;20034;-71
2023/10/18 00:21:00;;;;;;;2.47;1.00;;;17.40;97.20;;;;;;5120721;28;20092;-72
2023/10/18 00:23:27;;;;;;;1.65;0.95;;;17.40;96.90;;;;;;5102322;28;20023;-72
2023/10/18 00:25:54;;;;;;;2.55;1.08;;;17.40;97.40;;;;;;5120418;28;20047;-72
2023/10/18 00:28:20;;;;;;;1.73;0.90;;;;;;;;;;5119292;28;20039;-72
2023/10/18 00:30:46;;;;;;;2.17;1.08;;;17.40;96.90;;;;;;5120828;28;20437;-72
2023/10/18 00:33:12;;;;;;;2.83;0.90;;;17.40;97.30;;;;;;5120608;28;20077;-72
2023/10/18 00:35:41;;;;;;;1.30;0.77;;;17.40;97.30;;;;;;5120818;28;20019;-73
2023/10/18 00:38:16;;;;;;;1.17;1.00;;;17.40;97.20;;;;;;5120572;28;20058;-73
2023/10/18 00:40:45;;;;;;;1.67;0.93;;;17.40;97.30;;;;;;5110519;28;20503;-72
2023/10/18 00:43:21;;;;;;;2.80;0.90;;;17.40;97.30;;;;;;5120261;28;20042;-73
2023/10/18 00:45:51;;;;;;;2.42;0.82;;;17.30;97.10;;;;;;5102041;28;20050;-73
2023/10/18 00:48:19;;;;;;;1.70;1.00;;;17.30;97.70;;;;;;5120163;28;20062;-74
2023/10/18 00:50:48;;;;;;;1.25;0.70;;;17.30;97.40;;;;;;5119300;28;20019;-74
2023/10/18 00:53:21;;;;;;;2.55;1.02;;;17.30;97.80;;;;;;5120213;28;20047;-74
2023/10/18 00:56:04;;;;;;;3.15;0.70;;;17.30;97.70;;;;;;5119760;28;20022;-75
2023/10/18 00:58:32;;;;;;;1.88;1.00;;;17.40;97.30;;;;;;5107854;28;20067;-75
2023/10/18 01:01:01;;;;;;;1.88;0.98;;;17.40;96.60;;;;;;5120019;28;20408;-75
2023/10/18 01:03:35;;;;;;;3.50;1.27;;;17.30;97.60;;;;;;5120179;28;20083;-76
2023/10/18 01:06:04;;;;;;;1.98;0.90;;;17.40;97.60;;;;;;5101601;28;20027;-73
2023/10/18 01:08:30;;;;;;;1.63;1.00;;;17.40;97.60;;;;;;5119886;28;20033;-73
2023/10/18 01:11:04;;;;;;;2.42;0.80;;;17.30;97.60;;;;;;5132722;27;20035;-73
2023/10/18 01:13:31;;;;;;;1.20;0.80;;;17.30;97.30;;;;;;5120024;28;20023;-73
2023/10/18 01:15:59;;;;;;;0.90;0.77;;;17.30;97.80;;;;;;5101490;28;20027;-74
2023/10/18 01:18:24;;;;;;;1.13;0.80;;;17.40;98.10;;;;;;5119889;28;20104;-73
2023/10/18 01:20:50;;;;;;;1.70;0.95;;;17.30;98.40;;;;;;5119650;28;20033;-74
2023/10/18 01:23:16;;;;;;;2.28;0.90;;;17.40;98.50;;;;;;5119814;28;20020;-74
2023/10/18 01:25:41;;;;;;;1.55;0.93;;;17.40;98.50;;;;;;5119371;28;20462;-71
2023/10/18 01:28:07;;;;;;;1.98;0.90;;;17.30;98.40;;;;;;5119582;28;20394;-72
2023/10/18 01:30:33;;;;;;;1.52;0.90;;;17.40;98.60;;;;;;5119481;28;20443;-73
2023/10/18 01:33:01;;;;;;;2.67;1.00;;;17.40;98.60;;;;;;5119549;28;20020;-73
2023/10/18 01:35:27;;;;;;;2.60;0.90;;;17.30;98.40;;;;;;5119393;28;20089;-73
2023/10/18 01:37:53;;;;;;;2.13;0.98;;;17.40;98.90;;;;;;5101210;28;20032;-73
2023/10/18 01:40:32;;;;;;;2.88;1.17;;;17.30;99.70;;;;;;5101262;28;20027;-73
2023/10/18 01:42:58;;;;;;;2.00;0.80;;;17.20;99.90;;;;;;5113750;28;20019;-73
2023/10/18 01:45:29;;;;;;;1.92;1.05;;;17.10;99.90;;;;;;5119105;28;20499;-74
2023/10/18 01:47:54;;;;;;;0.90;0.80;;;17.00;99.90;;;;;;5119041;28;20106;-74
2023/10/18 01:50:21;;;;;;;1.33;0.82;;;17.00;99.90;;;;;;5119353;28;20043;-75
2023/10/18 01:52:46;;;;;;;1.52;1.00;;;16.90;99.90;;;;;;5119059;28;20047;-75
2023/10/18 01:55:12;;;;;;;1.65;1.05;;;16.90;99.90;;;;;;5119183;28;20035;-74
2023/10/18 01:57:39;;;;;;;2.28;1.10;;;16.90;99.90;;;;;;5120946;27;20380;-75
2023/10/18 02:00:05;;;;;;;1.77;0.90;;;16.90;99.90;;;;;;5100481;28;20125;-75
2023/10/18 02:02:34;;;;;;;1.40;0.80;;;16.90;99.90;;;;;;5100540;28;20027;-75
2023/10/18 02:04:59;;;;;;;1.77;0.98;;;16.90;99.90;;;;;;5100764;28;20024;-75
2023/10/18 02:07:25;;;;;;;1.35;0.70;;;16.80;99.90;;;;;;5118731;28;20023;-75
2023/10/18 02:09:57;;;;;;;1.67;0.80;;;16.80;99.90;;;;;;5117856;28;20441;-74
2023/10/18 02:12:23;;;;;;;1.50;0.90;;;16.80;99.90;;;;;;5100305;28;20047;-73
2023/10/18 02:14:50;;;;;;;1.45;0.70;;;16.80;99.90;;;;;;5100514;28;20035;-72
2023/10/18 02:17:18;;;;;;;1.48;0.93;;;16.80;99.90;;;;;;5118475;28;20098;-73
2023/10/18 02:19:44;;;;;;;1.23;0.90;;;16.80;99.90;;;;;;5118391;28;20055;-73
2023/10/18 02:22:13;;;;;;;1.92;0.98;;;16.80;99.90;;;;;;5117114;28;20019;-73
2023/10/18 02:24:39;;;;;;;1.85;0.90;;;16.80;99.90;;;;;;5118282;28;20053;-72
2023/10/18 02:27:09;;;;;;;1.30;0.80;;;16.80;99.90;;;;;;5113604;28;20512;-72
2023/10/18 02:29:35;;;;;;;1.70;0.90;;;16.90;99.90;;;;;;5115339;28;20164;-72
2023/10/18 02:32:04;;;;;;;2.63;1.02;;;16.90;99.90;;;;;;5120946;27;20016;-73
2023/10/18 02:34:33;;;;;;;2.35;1.02;;;16.90;99.90;;;;;;5134911;27;20026;-72
2023/10/18 02:37:01;;;;;;;1.90;1.10;;;16.90;99.90;;;;;;5123395;27;20468;-73
2023/10/18 02:39:32;;;;;;;1.77;1.20;;;16.90;99.90;;;;;;5121616;27;20080;-73
2023/10/18 02:41:58;;;;;;;1.83;1.02;;;16.90;99.90;;;;;;5095760;28;20020;-73
2023/10/18 02:44:25;;;;;;;1.75;1.00;;;16.90;99.90;;;;;;5117589;27;20031;-73
2023/10/18 02:46:54;;;;;;;2.42;1.02;;;16.90;99.90;;;;;;5123710;27;20019;-72
2023/10/18 02:49:27;;;;;;;1.90;1.17;;;16.90;99.90;;;;;;5117166;27;20023;-72
2023/10/18 02:51:53;;;;;;;1.33;1.00;;;16.90;99.90;;;;;;5118874;27;20015;-73
2023/10/18 02:54:23;;;;;;;2.65;1.00;;;16.90;99.90;;;;;;5118158;27;20249;-72
2023/10/18 02:56:52;;;;;;;1.85;1.05;;;16.90;99.90;;;;;;5122347;27;20046;-73
2023/10/18 02:59:21;;;;;;;1.73;0.82;;;16.80;99.90;;;;;;5130364;27;20396;-74
2023/10/18 03:01:49;;;;;;;2.92;1.05;;;16.80;99.90;;;;;;5117853;28;20043;-74
2023/10/18 03:04:14;;;;;;;1.23;1.00;;;16.80;99.90;;;;;;5117800;28;20016;-73
2023/10/18 03:06:41;;;;;;;1.63;0.88;;;16.80;99.90;;;;;;5117956;28;20031;-74
2023/10/18 03:12:03;;;;;;;1.40;0.80;;;16.80;99.90;;;;;;5059656;28;20037;-73
2023/10/18 03:17:16;;;;;;;3.58;1.00;;;16.80;99.90;;;;;;5120180;28;20061;-75
2023/10/18 03:19:50;;;;;;;2.13;0.88;;;16.70;99.90;;;;;;5117803;28;20076;-72
2023/10/18 03:22:19;;;;;;;2.15;1.00;;;16.70;99.90;;;;;;5098909;28;20510;-72
2023/10/18 03:24:47;;;;;;;1.63;0.98;;;16.80;99.90;;;;;;5117690;28;20146;-72
2023/10/18 03:27:14;;;;;;;1.50;0.90;;;16.80;99.90;;;;;;5117253;28;20468;-72
2023/10/18 03:29:43;;;;;;;1.45;1.10;;;16.80;99.90;;;;;;5117874;28;20019;-73
2023/10/18 03:32:14;;;;;;;1.90;0.90;;;16.80;99.90;;;;;;5111453;28;20024;-73
2023/10/18 03:34:41;;;;;;;1.20;0.90;;;16.90;99.90;;;;;;5117665;28;20016;-76
2023/10/18 03:37:12;;;;;;;1.92;1.02;;;16.90;99.90;;;;;;5117402;28;20023;-75
2023/10/18 03:39:41;;;;;;;1.83;0.88;;;16.80;99.90;;;;;;5117419;28;20020;-75
2023/10/18 03:42:08;;;;;;;1.40;0.90;;;16.90;99.90;;;;;;5110216;28;20023;-75
2023/10/18 03:44:34;;;;;;;1.40;0.93;;;16.90;99.90;;;;;;5117377;28;20051;-75
2023/10/18 03:47:12;;;;;;;2.35;1.00;;;16.90;99.90;;;;;;5116707;28;20030;-75
2023/10/18 03:49:38;;;;;;;2.10;0.95;;;16.90;99.90;;;;;;5117232;28;20098;-74
2023/10/18 03:54:46;;;;;;;1.15;0.77;;;16.90;99.90;;;;;;5117507;28;20043;-72
2023/10/18 03:57:19;;;;;;;2.13;0.88;;;16.90;99.90;;;;;;5118344;28;20365;-72
2023/10/18 03:59:46;;;;;;;1.55;1.00;;;16.90;99.90;;;;;;5112805;28;20063;-73
2023/10/18 04:02:16;;;;;;;1.75;0.90;;;16.90;99.90;;;;;;5124049;28;20023;-73
2023/10/18 04:04:47;;;;;;;1.65;0.80;;;16.90;99.90;;;;;;5117465;28;20056;-73
2023/10/18 04:07:16;;;;;;;1.15;0.88;;;16.90;99.90;;;;;;5116494;28;20023;-74
2023/10/18 04:12:27;;;;;;;1.20;0.90;;;16.90;99.90;;;;;;5117184;28;20015;-71
2023/10/18 04:14:56;;;;;;;1.52;0.82;;;16.90;99.90;;;;;;5115486;28;20034;-71
2023/10/18 04:17:36;;;;;;;1.73;0.98;;;16.90;99.90;;;;;;5122239;28;20024;-72
2023/10/18 04:22:42;;;;;;;1.58;0.88;;;16.90;99.90;;;;;;5124781;28;20476;-72
2023/10/18 04:25:17;;;;;;;1.05;0.77;;;16.90;99.90;;;;;;5122342;28;20030;-73
2023/10/18 04:27:44;;;;;;;2.50;1.10;;;16.80;99.90;;;;;;5133111;28;20031;-72
2023/10/18 04:30:16;;;;;;;1.23;0.82;;;16.80;99.90;;;;;;5132421;28;20368;-72
2023/10/18 04:32:42;;;;;;;1.42;1.10;;;16.80;99.90;;;;;;5120723;27;20031;-73
2023/10/18 04:35:17;;;;;;;2.95;1.17;;;16.80;99.90;;;;;;5133291;27;20012;-74
2023/10/18 04:37:43;;;;;;;1.65;0.90;;;16.70;99.90;;;;;;5125061;27;20027;-73
2023/10/18 04:40:22;;;;;;;1.63;1.02;;;16.70;99.90;;;;;;5122367;27;20504;-74
2023/10/18 04:42:49;;;;;;;1.25;0.90;;;16.70;99.90;;;;;;5129616;27;20016;-73
2023/10/18 04:45:18;;;;;;;2.80;1.00;;;16.70;99.90;;;;;;5123689;27;20024;-73
2023/10/18 04:47:49;;;;;;;1.13;0.85;;;16.60;99.90;;;;;;5120297;28;20027;-73
2023/10/18 04:50:29;;;;;;;1.90;1.08;;;16.60;99.90;;;;;;5094079;27;20130;-74
2023/10/18 04:52:59;;;;;;;1.13;0.80;;;16.60;99.90;;;;;;5125195;27;20022;-73
2023/10/18 04:55:27;;;;;;;1.77;1.15;;;16.50;99.90;;;;;;5120023;28;20008;-73
2023/10/18 04:57:53;;;;;;;1.73;1.00;;;16.50;99.90;;;;;;5118774;28;20032;-73
2023/10/18 05:00:25;;;;;;;3.17;1.02;;;16.50;99.90;;;;;;5117606;27;20048;-73
2023/10/18 05:02:58;;;;;;;1.77;1.10;;;16.50;99.90;;;;;;5123429;27;20155;-73
2023/10/18 05:05:26;;;;;;;1.80;1.02;;;16.50;99.90;;;;;;5129000;27;20068;-72
2023/10/18 05:07:54;;;;;;;3.92;1.48;;;16.50;99.90;;;;;;5123708;27;20015;-73
2023/10/18 05:10:21;;;;;;;1.77;1.00;;;16.50;99.90;;;;;;5110019;28;20020;-73
2023/10/18 05:13:19;;;;;;;2.42;1.10;;;16.50;99.90;;;;;;5123472;27;20019;-73
2023/10/18 05:15:38;;;;;;;2.75;1.17;;;16.60;99.90;;;;;;5126412;27;20027;-73
2023/10/18 05:18:15;;;;;;;2.58;0.90;;;16.60;99.90;;;;;;5125488;27;20034;-73
2023/10/18 05:20:46;;;;;;;2.47;1.20;;;16.60;99.90;;;;;;5122224;27;20123;-73
2023/10/18 05:23:32;;;;;;;1.92;1.08;;;16.60;99.90;;;;;;5128875;27;20027;-74
2023/10/18 05:28:28;;;;;;;1.20;0.90;;;16.60;99.90;;;;;;5119546;28;20028;-68
2023/10/18 05:31:26;;;;;;;3.08;1.10;;;16.60;99.90;;;;;;5119958;28;20020;-70
2023/10/18 05:33:49;;;;;;;3.60;1.40;;;16.60;99.90;;;;;;5119214;28;20043;-71
2023/10/18 05:41:27;;;;;;;1.52;1.08;;;16.60;99.90;;;;;;5116978;28;20020;-69
2023/10/18 05:43:58;;;;;;;;;;;16.60;99.90;;;;;;5118999;28;20027;-72
2023/10/18 05:46:27;;;;;;;2.33;1.05;;;16.60;99.90;;;;;;5119032;28;19922;-73
2023/10/18 05:48:55;;;;;;;2.78;1.23;;;16.60;99.90;;;;;;5118844;28;20027;-70
2023/10/18 05:51:26;;;;;;;1.50;1.10;;;16.60;99.90;;;;;;5100568;28;20112;-72
2023/10/18 05:53:59;;;;;;;1.92;0.95;;;16.60;99.90;;;;;;5101202;28;20012;-72
2023/10/18 05:56:29;;;;;;;2.42;1.00;;;16.60;99.90;;;;;;5101463;28;20034;-72
2023/10/18 06:01:58;;;;;;;1.92;1.13;;;16.60;99.90;;;;;;5063896;28;20040;-71
2023/10/18 06:04:33;;;;;;;1.65;1.13;;;16.60;99.90;;;;;;5095655;28;20048;-71
2023/10/18 06:06:59;;;;;;;1.55;1.10;;;16.60;99.90;;;;;;5110378;27;20050;-71
2023/10/18 06:09:32;;;;;;;2.90;1.10;;;16.70;99.90;;;;;;5132466;27;20027;-73
2023/10/18 06:12:00;;;;;;;1.55;0.93;;;16.70;99.90;;;;;;5119780;27;20025;-72
2023/10/18 06:14:44;;;;;;;2.45;1.10;;;16.70;99.90;;;;;;5104064;27;20544;-69
2023/10/18 06:17:13;;;;;;;;;;;16.70;99.90;;;;;;5119659;27;20044;-70
2023/10/18 06:19:41;;;;;;;2.60;1.15;;;16.70;99.90;;;;;;5118463;27;19907;-70
2023/10/18 06:24:51;;;;;;;1.85;1.05;;;16.70;99.90;;;;;;5122820;27;20050;-69
2023/10/18 06:27:17;;;;;;;2.08;1.15;;;16.70;99.90;;;;;;5111580;27;20452;-68
2023/10/18 06:29:45;;;;;;;1.92;1.17;;;16.70;99.90;;;;;;5118429;27;20004;-70
2023/10/18 06:32:14;;;;;;;1.35;0.90;;;16.70;99.90;;;;;;5098778;27;20024;-70
2023/10/18 06:34:46;;;;;;;1.70;1.30;;;16.70;99.90;;;;;;5116586;28;20032;-77
2023/10/18 06:37:22;;;;;;;2.63;1.20;;;16.70;99.90;;;;;;5099619;28;20015;-71
2023/10/18 06:39:51;;;;;;;1.55;1.10;;;16.70;99.90;;;;;;5117724;27;20018;-74
2023/10/18 06:42:18;;;;;;;2.50;1.38;;;16.70;99.90;;;;;;5121253;27;20026;-68
2023/10/18 06:44:44;;;;;;;3.92;1.25;;;16.70;99.90;;;;;;5117174;27;20050;-68
2023/10/18 06:47:13;;;;;;;1.88;1.27;;;16.70;99.90;;;;;;5116239;28;20023;-69
2023/10/18 06:49:43;;;;;;;3.50;1.10;;;16.70;99.90;;;;;;5095850;28;20019;-69
2023/10/18 06:52:14;;;;;;;2.72;1.40;;;16.70;99.90;;;;;;5117183;27;20016;-69
2023/10/18 06:54:40;;;;;;;1.70;0.90;;;16.70;99.90;;;;;;5099568;28;20545;-68
2023/10/18 06:57:15;;;;;;;1.67;0.90;;;16.70;99.90;;;;;;5110841;28;20075;-69
2023/10/18 06:59:46;;;;;;;1.95;1.17;;;16.70;99.90;;;;;;5098071;28;20122;-69
2023/10/18 07:02:12;;;;;;;2.53;1.20;;;16.70;99.90;;;;;;5100053;28;20023;-68
2023/10/18 07:04:38;;;;;;;2.67;1.40;;;16.70;99.90;;;;;;5116024;28;20008;-68
2023/10/18 07:07:20;;;;;;;1.90;1.15;;;16.70;99.90;;;;;;5115227;28;20023;-69
2023/10/18 07:09:49;;;;;;;3.63;1.40;;;16.70;99.90;;;;;;5105347;28;20023;-69
2023/10/18 07:12:17;;;;;;;1.58;1.00;;;16.70;99.90;;;;;;5113425;28;20106;-68
2023/10/18 07:14:43;;;;;;;1.90;1.40;;;16.70;99.90;;;;;;5124117;27;20048;-68
2023/10/18 07:17:13;;;;;;;3.55;2.05;;;16.70;99.90;;;;;;5115008;28;20028;-68
2023/10/18 07:19:48;;;;;;;2.38;1.30;;;16.70;99.90;;;;;;5117690;28;20028;-69
2023/10/18 07:22:18;;;;;;;2.35;1.50;;;16.60;99.90;;;;;;5094435;28;20395;-68
2023/10/18 07:24:59;;;;;;;4.28;1.45;;;16.70;99.90;;;;;;5116347;28;20019;-68
2023/10/18 07:27:29;;;;;;;2.80;1.40;;;16.70;99.90;;;;;;5117253;28;20023;-69
2023/10/18 07:29:58;;;;;;;3.17;1.10;;;16.70;99.90;;;;;;5117913;28;20031;-68
2023/10/18 07:32:24;;;;;;;2.47;1.17;;;16.70;99.90;;;;;;5117810;28;20530;-69
2023/10/18 07:34:54;;;;;;;2.50;1.30;;;16.70;99.90;;;;;;5103615;28;20019;-69
2023/10/18 07:37:38;;;;;;;2.47;1.13;;;16.70;99.90;;;;;;5115617;28;20032;-69
2023/10/18 07:40:08;;;;;;;3.28;1.40;;;16.70;99.90;;;;;;5108491;28;20024;-68
2023/10/18 07:42:43;;;;;;;1.92;1.30;;;16.70;99.90;;;;;;5111249;28;20026;-69
2023/10/18 07:45:14;;;;;;;2.25;1.35;;;16.70;99.90;;;;;;5117611;28;20023;-68
2023/10/18 07:47:40;;;;;;;3.15;1.67;;;16.70;99.90;;;;;;5117102;28;20102;-68
2023/10/18 07:52:55;;;;;;;1.63;1.30;;;16.60;99.90;;;;;;5117659;28;20054;-68
2023/10/18 07:55:24;;;;;;;2.17;1.30;;;16.60;99.90;;;;;;5116717;28;20395;-69
2023/10/18 07:57:50;;;;;;;2.38;1.65;;;16.60;99.90;;;;;;5099030;28;20440;-68
2023/10/18 08:00:22;;;;;;;2.30;1.30;;;16.70;99.90;;;;;;5104660;28;20043;-69
2023/10/18 08:02:49;;;;;;;2.10;1.20;;;16.70;99.90;;;;;;5114872;28;20423;-68
2023/10/18 08:05:18;;;;;;;2.60;1.35;;;16.70;99.90;;;;;;5116913;28;20028;-69
2023/10/18 08:07:49;;;;;;;2.35;1.20;;;16.70;99.90;;;;;;5117252;28;20028;-69
2023/10/18 08:10:19;;;;;;;3.40;1.40;;;16.70;99.90;;;;;;5113270;27;20041;-69
2023/10/18 08:13:08;;;;;;;6.20;1.60;;;16.70;99.90;;;;;;5121728;27;20197;-68
2023/10/18 08:15:37;;;;;;;3.13;1.42;;;16.80;99.90;;;;;;5102166;28;20023;-68
2023/10/18 08:18:42;;;;;;;2.38;1.70;;;16.80;99.90;;;;;;5120835;28;20528;-68
2023/10/18 08:23:34;;;;;;;4.15;1.73;;;16.90;99.90;;;;;;5120728;28;20050;-69
2023/10/18 08:26:03;;;;;;;1.88;1.55;;;16.90;99.90;;;;;;5113881;28;20051;-68
2023/10/18 08:28:48;;;;;;;3.53;1.67;;;16.90;99.90;;;;;;5120579;28;20030;-68
2023/10/18 08:31:34;;;;;;;2.65;1.60;;;16.90;99.90;;;;;;5120601;28;20043;-68
2023/10/18 08:34:10;;;;;;;2.40;1.55;;;16.90;99.90;;;;;;5119368;28;20020;-69
2023/10/18 08:36:35;;;;;;;5.35;1.50;;;16.90;99.90;;;;;;5119079;28;20031;-68
2023/10/18 08:39:02;;;;;;;2.85;1.38;;;16.90;99.90;;;;;;5120656;28;20072;-69
2023/10/18 08:41:33;;;;;;;2.97;1.35;;;16.90;99.90;;;;;;5119889;28;20035;-69
2023/10/18 08:44:19;;;;;;;1.80;1.23;;;16.90;99.90;;;;;;5120634;28;20020;-68
2023/10/18 08:47:04;;;;;;;2.58;1.60;;;16.90;99.90;;;;;;5120363;28;20020;-68
2023/10/18 08:49:33;;;;;;;2.95;1.25;;;17.00;99.90;;;;;;5101916;28;20045;-68
2023/10/18 08:52:08;;;;;;;2.10;1.20;;;17.00;99.90;;;;;;5120411;28;20024;-68
2023/10/18 08:54:39;;;;;;;2.50;1.15;;;17.00;99.90;;;;;;5118416;28;20019;-68
2023/10/18 08:57:08;;;;;;;1.65;1.10;;;17.10;99.90;;;;;;5118572;28;20412;-68
2023/10/18 08:59:46;;;;;;;2.45;1.35;;;17.10;99.90;;;;;;5119585;28;20016;-68
2023/10/18 09:02:20;;;;;;;2.28;1.40;;;17.10;99.90;;;;;;5119986;28;20084;-69
2023/10/18 09:04:52;;;;;;;2.92;1.38;;;17.20;99.90;;;;;;5119750;28;20015;-68
2023/10/18 09:07:21;;;;;;;2.60;1.70;;;17.20;99.90;;;;;;5119790;28;20395;-68
2023/10/18 09:09:57;;;;;;;2.90;1.48;;;17.20;99.90;;;;;;5121798;27;20047;-69
2023/10/18 09:13:08;;;;;;;1.73;1.27;;;17.30;99.90;;;;;;5124137;27;20023;-69
2023/10/18 09:15:35;;;;;;;3.15;1.38;;;17.30;99.90;;;;;;5119620;28;20023;-69
2023/10/18 09:18:05;;;;;;;1.90;0.88;;;17.30;99.90;;;;;;5119181;28;20059;-69
2023/10/18 09:20:31;;;;;;;2.95;1.15;;;17.40;99.90;;;;;;5119462;28;20492;-69
2023/10/18 09:23:05;;;;;;;1.25;1.00;;;17.40;99.90;;;;;;5120060;28;20107;-68
2023/10/18 09:26:04;;;;;;;1.38;1.00;;;17.50;99.90;;;;;;5118817;28;20028;-68
2023/10/18 09:28:33;;;;;;;1.20;0.80;;;17.50;99.90;;;;;;5100980;28;20036;-69
2023/10/18 09:31:09;;;;;;;1.00;0.85;;;17.60;99.90;;;;;;5119565;28;20024;-69
2023/10/18 09:33:37;;;;;;;1.33;0.80;;;17.70;99.90;;;;;;5119172;28;20594;-68
2023/10/18 09:36:18;;;;;;;2.55;0.95;;;17.70;99.90;;;;;;5101547;28;20027;-68
2023/10/18 09:38:44;;;;;;;1.90;0.80;;;17.80;99.90;;;;;;5119356;28;20555;-68
2023/10/18 09:41:10;;;;;;;1.77;0.80;;;17.80;99.90;;;;;;5118795;28;20043;-68
2023/10/18 09:43:38;;;;;;;1.73;0.70;;;17.90;99.90;;;;;;5118747;28;20020;-67
2023/10/18 09:46:10;;;;;;;1.67;0.60;;;17.90;99.90;;;;;;5119215;28;20027;-69
2023/10/18 09:48:41;;;;;;;0.63;0.52;;;18.00;99.90;;;;;;5119122;28;20023;-68
2023/10/18 09:51:08;;;;;;;2.38;0.75;;;18.00;99.90;;;;;;5100661;28;20019;-69
2023/10/18 09:53:49;;;;;;;2.05;0.50;;;18.00;99.90;;;;;;5119260;28;20030;-68
2023/10/18 09:56:19;;;;;;;1.35;0.57;;;18.00;99.90;;;;;;5100242;28;20073;-69
2023/10/18 09:58:49;;;;;;;0.75;0.50;;;18.10;99.90;;;;;;5119141;28;20371;-68
2023/10/18 10:01:25;;;;;;;1.42;0.65;;;18.20;99.90;;;;;;5100475;28;20107;-69
2023/10/18 10:03:56;;;;;;;1.58;0.50;;;18.20;99.90;;;;;;5119141;28;20028;-69
2023/10/18 10:06:26;;;;;;;0.82;0.50;;;18.30;99.90;;;;;;5102421;28;20024;-69
2023/10/18 10:09:13;;;;;;;0.90;0.47;;;18.40;99.90;;;;;;5118604;28;20031;-69
2023/10/18 10:11:45;;;;;;;1.98;0.60;;;18.50;99.90;;;;;;5107108;28;20064;-68
2023/10/18 10:14:16;;;;;;;1.10;0.60;;;18.50;99.90;;;;;;5118327;28;20024;-68
2023/10/18 10:17:01;;;;;;;1.55;1.27;;;18.50;99.90;;;;;;5118061;28;20023;-68
2023/10/18 10:19:31;;;;;;;3.25;1.60;;;18.60;99.90;;;;;;5118217;28;20392;-69
2023/10/18 10:22:04;;;;;;;2.80;1.83;;;18.60;99.90;;;;;;5117950;28;20051;-68
2023/10/18 10:24:43;;;;;;;3.30;1.80;;;18.70;99.90;;;;;;5118364;28;20391;-69
2023/10/18 10:27:49;;;;;;;2.20;1.70;;;18.70;99.90;;;;;;5117757;28;20080;-69
2023/10/18 10:32:54;;;;;;;2.10;1.27;;;18.70;99.90;;;;;;5118214;28;20541;-68
2023/10/18 10:35:25;;;;;;;1.50;0.98;;;18.70;99.90;;;;;;5117711;28;20456;-69
2023/10/18 10:38:18;;;;;;;1.55;0.80;;;18.70;99.90;;;;;;5099299;28;20059;-69
2023/10/18 10:40:48;;;;;;;3.25;1.90;;;18.70;99.90;;;;;;5117374;28;20028;-68
2023/10/18 10:43:14;;;;;;;1.65;1.00;;;18.80;99.90;;;;;;5117952;28;20072;-68
2023/10/18 10:48:17;;;;;;;1.65;0.70;;;18.90;99.90;;;;;;5118068;28;20046;-68
2023/10/18 10:51:12;;;;;;;0.60;0.40;;;19.00;99.90;;;;;;5118115;28;20049;-68
2023/10/18 10:54:11;;;;;;;1.30;0.40;;;19.00;99.90;;;;;;5117817;28;20053;-68
2023/10/18 10:56:33;;;;;;;1.25;0.60;;;19.10;99.90;;;;;;5116531;28;20035;-68
2023/10/18 10:59:03;;;;;;;1.63;0.45;;;19.10;99.90;;;;;;5117894;28;20024;-67
2023/10/18 11:01:43;;;;;;;2.03;0.50;;;19.10;99.90;;;;;;5117578;28;20039;-67
2023/10/18 11:04:46;;;;;;;0.93;0.32;;;19.20;99.90;;;;;;5117560;28;20019;-67
2023/10/18 11:07:13;;;;;;;1.40;0.40;;;19.20;99.90;;;;;;5117868;28;20032;-68
2023/10/18 11:09:42;;;;;;;1.05;0.30;;;19.20;99.90;;;;;;5124069;27;20027;-68
2023/10/18 11:12:11;;;;;;;0.93;0.30;;;19.20;99.90;;;;;;5124161;27;20019;-67
2023/10/18 11:14:37;;;;;;;1.60;0.20;;;19.30;99.90;;;;;;5117896;28;20015;-68
2023/10/18 11:19:51;;;;;;;0.93;0.30;;;19.30;99.90;;;;;;5118090;28;20044;-68
2023/10/18 11:22:21;;;;;;;2.10;0.55;;;19.30;99.90;;;;;;5099153;28;20099;-68
2023/10/18 11:24:49;;;;;;;2.53;0.82;;;19.30;99.90;;;;;;5117324;28;20020;-68
2023/10/18 11:27:21;;;;;;;2.00;0.75;;;19.30;99.90;;;;;;5117210;28;20058;-68
2023/10/18 11:29:47;;;;;;;2.15;0.95;;;19.30;99.90;;;;;;5117750;28;20015;-68
2023/10/18 11:32:18;;;;;;;1.98;0.60;;;19.40;99.90;;;;;;5099151;28;20051;-69
2023/10/18 11:34:45;;;;;;;2.60;0.88;;;19.40;99.90;;;;;;5117269;28;20018;-69
2023/10/18 11:37:13;;;;;;;1.95;0.60;;;19.40;99.90;;;;;;5099107;28;20377;-69
2023/10/18 11:39:42;;;;;;;3.53;1.67;;;19.50;99.90;;;;;;5099236;28;20027;-67
2023/10/18 11:42:10;;;;;;;1.55;0.65;;;19.50;99.90;;;;;;5100351;28;20035;-67
2023/10/18 11:44:39;;;;;;;2.35;0.80;;;19.40;99.90;;;;;;5121535;28;20020;-68
2023/10/18 11:47:12;;;;;;;2.00;0.70;;;19.40;99.90;;;;;;5121540;28;20034;-68
2023/10/18 11:49:40;;;;;;;1.85;0.57;;;19.40;99.90;;;;;;5121442;28;20073;-68
2023/10/18 11:52:16;;;;;;;2.00;0.52;;;19.40;99.90;;;;;;5121367;28;20098;-68
2023/10/18 11:54:43;;;;;;;1.27;0.60;;;19.40;99.90;;;;;;5121367;28;20064;-68
2023/10/18 11:57:35;;;;;;;1.48;0.70;;;19.30;99.90;;;;;;5121088;28;20483;-68
2023/10/18 12:00:28;;;;;;;1.65;0.68;;;19.40;99.90;;;;;;5099537;28;20066;-69
2023/10/18 12:02:55;;;;;;;1.15;0.45;;;19.40;99.90;;;;;;5099554;28;20118;-69
2023/10/18 12:05:23;;;;;;;1.42;0.30;;;19.40;99.90;;;;;;5100975;28;20560;-68
2023/10/18 12:07:50;;;;;;;1.13;0.30;;;19.40;99.90;;;;;;5100609;28;20043;-69
2023/10/18 12:10:26;;;;;;;2.13;0.47;;;19.40;99.90;;;;;;5100418;28;20044;-68
2023/10/18 12:12:52;;;;;;;0.57;0.30;;;19.30;99.90;;;;;;5099526;28;20032;-68
2023/10/18 12:15:19;;;;;;;1.63;0.45;;;19.30;99.90;;;;;;5100855;28;20020;-68
2023/10/18 12:17:46;;;;;;;1.17;0.32;;;19.30;99.90;;;;;;5100894;28;20038;-68
2023/10/18 12:20:12;;;;;;;1.75;0.40;;;19.30;99.90;;;;;;5100609;28;20050;-67
2023/10/18 12:22:42;;;;;;;0.68;0.30;;;19.30;99.90;;;;;;5100843;28;20043;-68
2023/10/18 12:25:08;;;;;;;0.85;0.40;;;19.30;99.90;;;;;;5100151;28;20075;-68
2023/10/18 12:27:34;;;;;;;1.10;0.40;;;19.20;99.90;;;;;;5100442;28;20031;-68
2023/10/18 12:30:27;;;;;;;1.23;0.40;;;19.20;99.90;;;;;;5100444;28;20020;-68
2023/10/18 12:32:54;;;;;;;0.20;0.20;;;19.20;99.90;;;;;;5099131;28;20103;-68
2023/10/18 12:35:20;;;;;;;2.72;0.40;;;19.20;99.90;;;;;;5098905;28;20027;-68
2023/10/18 12:37:46;;;;;;;0.80;0.38;;;19.30;99.90;;;;;;5100417;28;20341;-69
2023/10/18 12:40:32;;;;;;;1.67;0.32;;;19.20;99.90;;;;;;5099797;28;20068;-68
2023/10/18 12:43:00;;;;;;;0.63;0.38;;;19.20;99.90;;;;;;5094055;28;20420;-68
2023/10/18 12:45:27;;;;;;;0.40;0.20;;;19.20;99.90;;;;;;5100305;28;20028;-68
2023/10/18 12:47:53;;;;;;;0.52;0.20;;;19.20;99.90;;;;;;5099795;28;20023;-68
2023/10/18 12:50:19;;;;;;;0.93;0.30;;;19.10;99.90;;;;;;5100415;28;20020;-68
2023/10/18 12:52:46;;;;;;;1.40;0.30;;;19.10;99.90;;;;;;5098191;28;20028;-68
2023/10/18 12:57:57;;;;;;;0.63;0.22;;;19.10;99.90;;;;;;5099839;28;20079;-68
2023/10/18 13:00:26;;;;;;;0.68;0.30;;;19.10;99.90;;;;;;5108057;28;20076;-68
2023/10/18 13:05:21;;;;;;;0.40;0.22;;;19.00;99.90;;;;;;5120471;28;20115;-68
2023/10/18 13:07:52;;;;;;;1.25;0.50;;;19.00;99.90;;;;;;5118616;28;20074;-67
2023/10/18 13:10:35;;;;;;;0.95;0.40;;;19.00;99.90;;;;;;5131696;27;20015;-68
2023/10/18 13:13:04;;;;;;;1.48;0.60;;;19.00;99.90;;;;;;5107682;28;20016;-68
2023/10/18 13:15:33;;;;;;;1.27;0.50;;;18.90;99.90;;;;;;5101379;28;20036;-69
2023/10/18 13:17:59;;;;;;;1.90;0.50;;;19.00;99.90;;;;;;5101620;28;20087;-69
2023/10/18 13:20:24;;;;;;;2.05;0.75;;;18.90;99.90;;;;;;5119775;28;20179;-68
2023/10/18 13:22:56;;;;;;;0.88;0.30;;;18.90;99.90;;;;;;5119842;28;20104;-68
2023/10/18 13:25:25;;;;;;;1.38;0.30;;;18.80;99.90;;;;;;5100989;28;20034;-68
2023/10/18 13:27:54;;;;;;;1.52;0.40;;;18.80;99.90;;;;;;5119617;28;20055;-69
2023/10/18 13:30:39;;;;;;;1.88;0.40;;;18.80;99.90;;;;;;5119591;28;20020;-68
2023/10/18 13:33:11;;;;;;;1.58;0.35;;;18.80;99.90;;;;;;5101263;28;20430;-68
2023/10/18 13:35:40;;;;;;;0.70;0.20;;;18.80;99.90;;;;;;5119556;28;20492;-68
2023/10/18 13:38:06;;;;;;;1.42;0.40;;;18.80;99.90;;;;;;5119476;28;20023;-68
2023/10/18 13:40:36;;;;;;;1.05;0.40;;;18.80;99.90;;;;;;5119020;28;20031;-69
2023/10/18 13:43:09;;;;;;;2.15;0.40;;;18.80;99.90;;;;;;5100941;28;20020;-68
2023/10/18 13:45:35;;;;;;;0.75;0.30;;;18.80;99.90;;;;;;5101013;28;20051;-68
2023/10/18 13:48:02;;;;;;;1.90;0.38;;;18.70;99.90;;;;;;5119150;28;20020;-67
2023/10/18 13:50:33;;;;;;;1.65;0.50;;;18.70;99.90;;;;;;5119007;28;20100;-69
2023/10/18 13:52:59;;;;;;;0.60;0.30;;;18.70;99.90;;;;;;5100810;28;20024;-69